DTNH

Enfidha - Hammamet International Airport

Enfidha, Tunisia
TAF DTNH 182300Z 1900/1924 27002KT 9999 FEW026 PROB30 TEMPO 1905/1907 4000 BR
Issued Valid From Valid To
Jan-18 @ 23:00 UTC
(3 hours ago)
Jan-19 @ 00:00 UTC
(2 hours ago)
Jan-20 @ 00:00 UTC
(in 22 hours)
Jan-19 @ 00:00 to Jan-20 @ 00:00
TAF DTNH 182300Z 1900/1924 27002KT 9999 FEW026
Wind Visibility Clouds
270° at 2 knots 10,000+ meters
  • Few at 2,600' AGL
Temporary  (Probability 30%) Jan-19 @ 05:00 to Jan-19 @ 07:00
PROB30 TEMPO 1905/1907 4000 BR
Visibility Conditions
4,007 meters
  • Mist
TAF DTNH 182300Z 1900/1924 27002KT 9999 FEW026 PROB30 TEMPO 1905/1907 4000 BR
Issued Jan-18 @ 23:00 UTC
(3 hours ago)
Valid From Jan-19 @ 00:00 UTC
(2 hours ago)
Valid To Jan-20 @ 00:00 UTC
(in 22 hours)
Jan-19 @ 00:00 - Jan-20 @ 00:00
Wind Visibility
270° at 2 knots 10,000+ meters
Clouds
  • Few at 2,600' AGL
Probability 30% Temporary Jan-19 @ 05:00 - Jan-19 @ 07:00
Conditions
  • Mist